Terminal Aerodrome Forecast
Issued by NWS Quad Cities IA IL

Home | Current Version | Previous Version | Text Only | Print | Product List | Glossary On
Versions: 1 2 3 4 5 6 7 8 9 10 11 12 13 14 15 16 17
934
FTUS43 KDVN 142031 AAA
TAFDBQ
TAF AMD
KDBQ 142031Z 1421/1518 14015G22KT 2SM -SN BR SCT015 OVC025
      TEMPO 1421/1422 1SM -SN BR BKN009 OVC015
     FM142200 13012KT 3SM -SN BR BKN020 OVC040
     FM150000 13009KT 5SM -SN BR SCT025 OVC050
     FM150200 12005KT 6SM BR OVC009=

USA.gov is the U.S. government's official web portal to all federal, state and local government web resources and services.